createdAt,value
2022-10-18T00:01:00.644Z,18.66
2022-10-18T00:02:02.917Z,18.67
2022-10-18T00:03:05.094Z,18.67
2022-10-18T00:04:07.210Z,18.52
2022-10-18T00:05:09.790Z,18.64
2022-10-18T00:06:12.259Z,18.61
2022-10-18T00:07:14.423Z,18.65
2022-10-18T00:08:17.999Z,18.73
2022-10-18T00:09:20.144Z,18.61
2022-10-18T00:10:24.568Z,18.67
2022-10-18T00:11:26.758Z,18.68
2022-10-18T00:12:28.979Z,18.70
2022-10-18T00:13:31.146Z,18.68
2022-10-18T00:14:33.313Z,18.66
2022-10-18T00:15:35.426Z,18.66
2022-10-18T00:16:37.629Z,18.73
2022-10-18T00:17:39.947Z,18.76
2022-10-18T00:18:42.600Z,18.72
2022-10-18T00:19:44.973Z,18.76
2022-10-18T00:21:03.114Z,18.99
2022-10-18T00:22:05.257Z,18.64
2022-10-18T00:23:07.348Z,18.61
2022-10-18T00:24:09.686Z,18.59
2022-10-18T00:25:11.925Z,18.55
2022-10-18T00:26:17.313Z,18.51
2022-10-18T00:27:19.542Z,18.47
2022-10-18T00:28:21.651Z,18.50
2022-10-18T00:29:23.781Z,18.47
2022-10-18T00:30:25.967Z,18.42
2022-10-18T00:31:31.304Z,18.58
2022-10-18T00:32:38.251Z,18.63
2022-10-18T00:33:41.299Z,18.35
2022-10-18T00:34:43.441Z,18.32
2022-10-18T00:35:45.538Z,18.35
2022-10-18T00:36:47.681Z,18.33
2022-10-18T00:37:49.805Z,18.35
2022-10-18T00:38:52.201Z,18.33
2022-10-18T00:39:54.372Z,18.27
2022-10-18T00:40:56.472Z,18.28
2022-10-18T00:41:58.811Z,18.25
2022-10-18T00:43:00.906Z,18.25
2022-10-18T00:44:05.226Z,18.52
2022-10-18T00:45:07.838Z,18.26
2022-10-18T00:46:09.946Z,18.25
2022-10-18T00:47:14.446Z,18.39
2022-10-18T00:48:19.503Z,18.36
2022-10-18T00:49:25.198Z,18.32
2022-10-18T00:50:31.107Z,18.31
2022-10-18T00:51:38.562Z,18.37
2022-10-18T00:52:46.333Z,18.38
2022-10-18T00:53:49.417Z,18.21
2022-10-18T00:54:52.672Z,18.21
2022-10-18T00:55:54.832Z,18.08
2022-10-18T00:56:57.259Z,18.11
2022-10-18T00:58:00.394Z,18.11
2022-10-18T00:59:03.150Z,18.06
2022-10-18T01:00:09.757Z,18.16
2022-10-18T01:01:12.004Z,18.00
2022-10-18T01:02:15.883Z,18.01
2022-10-18T01:03:18.022Z,17.92
2022-10-18T01:04:21.162Z,18.04
2022-10-18T01:05:24.080Z,17.95
2022-10-18T01:06:28.338Z,18.10
2022-10-18T01:07:55.234Z,18.29
2022-10-18T01:09:15.021Z,18.30
2022-10-18T01:10:19.915Z,18.26
2022-10-18T01:11:33.407Z,18.24
2022-10-18T01:12:57.193Z,18.24
2022-10-18T01:14:05.474Z,18.30
2022-10-18T01:15:19.939Z,17.96
2022-10-18T01:16:29.934Z,17.93
2022-10-18T01:17:41.334Z,18.21
2022-10-18T01:19:17.168Z,18.22
2022-10-18T01:20:34.359Z,18.22
2022-10-18T01:21:55.966Z,18.15
2022-10-18T01:23:20.957Z,18.08
2022-10-18T01:24:34.849Z,18.09
2022-10-18T01:25:57.106Z,18.09
2022-10-18T01:27:09.565Z,17.76
2022-10-18T01:28:30.224Z,17.76
2022-10-18T01:30:00.214Z,18.10
2022-10-18T01:31:09.982Z,18.00
2022-10-18T01:32:30.647Z,18.09
2022-10-18T01:33:39.930Z,18.00
2022-10-18T01:34:45.787Z,17.92
2022-10-18T01:35:56.540Z,17.90
2022-10-18T01:37:01.911Z,17.78
2022-10-18T01:38:07.699Z,17.82
2022-10-18T01:39:15.400Z,17.87
2022-10-18T01:40:20.937Z,17.83
2022-10-18T01:41:25.105Z,17.79
2022-10-18T01:42:27.830Z,17.73
2022-10-18T01:43:32.071Z,17.73
2022-10-18T01:44:36.662Z,17.75
2022-10-18T01:45:39.599Z,17.64
2022-10-18T01:46:43.885Z,17.74
2022-10-18T01:47:47.527Z,17.70
2022-10-18T01:48:50.369Z,17.61
2022-10-18T01:50:00.580Z,17.84
2022-10-18T01:51:02.705Z,17.50
2022-10-18T01:52:05.478Z,17.50
2022-10-18T01:53:22.350Z,17.80
2022-10-18T01:54:35.257Z,17.81
2022-10-18T01:55:51.021Z,17.77
2022-10-18T01:57:24.547Z,17.81
2022-10-18T01:58:42.069Z,17.86
2022-10-18T01:59:52.738Z,17.88
2022-10-18T02:01:05.250Z,17.88
2022-10-18T02:02:26.076Z,17.60
2022-10-18T02:03:29.723Z,17.80
2022-10-18T02:04:44.311Z,17.85
2022-10-18T02:05:50.860Z,17.59
2022-10-18T02:07:03.998Z,17.84
2022-10-18T02:08:24.289Z,17.95
2022-10-18T02:09:42.849Z,17.90
2022-10-18T02:10:49.780Z,17.82
2022-10-18T02:11:54.657Z,17.74
2022-10-18T02:12:58.243Z,17.68
2022-10-18T02:14:06.225Z,17.84
2022-10-18T02:15:12.032Z,17.84
2022-10-18T02:16:20.249Z,17.90
2022-10-18T02:17:27.834Z,17.86
2022-10-18T02:18:41.265Z,17.92
2022-10-18T02:19:48.190Z,17.88
2022-10-18T02:20:51.785Z,17.86
2022-10-18T02:21:57.433Z,17.85
2022-10-18T02:23:01.364Z,17.83
2022-10-18T02:24:05.685Z,17.89
2022-10-18T02:25:13.732Z,17.96
2022-10-18T02:26:16.599Z,17.80
2022-10-18T02:27:18.900Z,17.79
2022-10-18T02:28:22.111Z,17.92
2022-10-18T02:29:25.088Z,17.75
2022-10-18T02:30:59.049Z,18.09
2022-10-18T02:32:28.900Z,18.07
2022-10-18T02:33:43.930Z,18.06
2022-10-18T02:35:03.605Z,18.10
2022-10-18T02:36:13.237Z,17.95
2022-10-18T02:37:17.672Z,17.83
2022-10-18T02:38:21.526Z,17.86
2022-10-18T02:39:46.275Z,18.12
2022-10-18T02:40:48.406Z,17.89
2022-10-18T02:41:50.791Z,17.90
2022-10-18T02:42:58.338Z,18.10
2022-10-18T02:44:00.500Z,17.83
2022-10-18T02:45:04.813Z,17.97
2022-10-18T02:46:07.121Z,17.87
2022-10-18T02:47:11.235Z,18.00
2022-10-18T02:48:13.350Z,17.93
2022-10-18T02:49:15.483Z,17.89
2022-10-18T02:50:18.206Z,17.93
2022-10-18T02:51:20.340Z,17.91
2022-10-18T02:52:22.479Z,17.93
2022-10-18T02:53:24.635Z,17.95
2022-10-18T02:54:26.842Z,17.94
2022-10-18T02:56:36.330Z,17.97
2022-10-18T02:57:38.455Z,17.96
2022-10-18T02:58:40.579Z,17.99
2022-10-18T02:59:42.676Z,17.93
2022-10-18T03:00:44.793Z,17.93
2022-10-18T03:01:47.016Z,18.01
2022-10-18T03:02:49.290Z,17.90
2022-10-18T03:03:51.644Z,17.98
2022-10-18T03:04:53.819Z,17.99
2022-10-18T03:05:56.187Z,17.99
2022-10-18T03:06:58.324Z,17.97
2022-10-18T03:08:00.461Z,17.97
2022-10-18T03:09:04.998Z,18.16
2022-10-18T03:10:07.677Z,18.11
2022-10-18T03:11:09.819Z,18.04
2022-10-18T03:12:11.966Z,18.01
2022-10-18T03:13:14.507Z,18.01
2022-10-18T03:14:16.634Z,18.00
2022-10-18T03:15:18.752Z,18.01
2022-10-18T03:16:20.950Z,17.84
2022-10-18T03:17:46.785Z,18.09
2022-10-18T03:18:48.954Z,17.83
2022-10-18T03:19:51.090Z,17.75
2022-10-18T03:20:53.217Z,17.76
2022-10-18T03:21:55.321Z,17.43
2022-10-18T03:22:57.439Z,17.48
2022-10-18T03:23:59.790Z,17.56
2022-10-18T03:25:01.911Z,17.69
2022-10-18T03:26:04.358Z,17.78
2022-10-18T03:27:06.483Z,17.64
2022-10-18T03:28:08.767Z,17.73
2022-10-18T03:29:11.394Z,17.77
2022-10-18T03:30:13.780Z,17.67
2022-10-18T03:31:15.933Z,17.74
2022-10-18T03:32:19.432Z,17.81
2022-10-18T03:33:21.526Z,17.87
2022-10-18T03:34:23.635Z,17.90
2022-10-18T03:35:25.845Z,17.86
2022-10-18T03:36:28.293Z,17.72
2022-10-18T03:37:30.680Z,17.75
2022-10-18T03:38:32.826Z,17.73
2022-10-18T03:39:34.928Z,17.74
2022-10-18T03:40:37.090Z,17.73
2022-10-18T03:41:39.290Z,17.80
2022-10-18T03:42:41.398Z,17.65
2022-10-18T03:43:43.590Z,17.71
2022-10-18T03:44:45.782Z,17.75
2022-10-18T03:45:48.116Z,17.83
2022-10-18T03:46:50.222Z,17.58
2022-10-18T03:47:52.369Z,17.47
2022-10-18T03:48:54.585Z,17.61
2022-10-18T03:49:57.317Z,17.53
2022-10-18T03:50:59.701Z,17.64
2022-10-18T03:52:01.818Z,17.57
2022-10-18T03:53:03.981Z,17.49
2022-10-18T03:54:06.108Z,17.35
2022-10-18T03:55:08.370Z,17.29
2022-10-18T03:56:10.519Z,17.44
2022-10-18T03:57:12.600Z,17.50
2022-10-18T03:58:14.699Z,17.57
2022-10-18T03:59:17.740Z,17.60
2022-10-18T04:00:19.915Z,17.45
2022-10-18T04:01:22.100Z,17.52
2022-10-18T04:02:24.377Z,17.52
2022-10-18T04:03:26.558Z,17.54
2022-10-18T04:04:28.648Z,17.61
2022-10-18T04:05:31.386Z,17.51
2022-10-18T04:06:33.515Z,17.54
2022-10-18T04:08:43.297Z,17.65
2022-10-18T04:09:45.472Z,17.60
2022-10-18T04:10:48.187Z,17.66
2022-10-18T04:11:51.030Z,17.77
2022-10-18T04:12:53.242Z,17.71
2022-10-18T04:13:55.340Z,17.75
2022-10-18T04:14:57.490Z,17.63
2022-10-18T04:15:59.602Z,17.62
2022-10-18T04:17:01.746Z,17.62
2022-10-18T04:18:04.069Z,17.64
2022-10-18T04:19:06.164Z,17.65
2022-10-18T04:20:08.733Z,17.71
2022-10-18T04:21:10.841Z,17.73
2022-10-18T04:22:13.111Z,17.68
2022-10-18T04:23:15.215Z,17.59
2022-10-18T04:24:17.913Z,17.55
2022-10-18T04:25:20.040Z,17.56
2022-10-18T04:26:22.802Z,17.47
2022-10-18T04:27:25.408Z,17.60
2022-10-18T04:28:27.590Z,17.70
2022-10-18T04:29:29.794Z,17.72
2022-10-18T04:30:31.897Z,17.67
2022-10-18T04:31:34.098Z,17.64
2022-10-18T04:32:36.259Z,17.62
2022-10-18T04:33:38.842Z,17.70
2022-10-18T04:34:40.952Z,17.67
2022-10-18T04:35:43.074Z,17.68
2022-10-18T04:36:45.230Z,17.62
2022-10-18T04:37:47.326Z,17.61
2022-10-18T04:38:49.442Z,17.56
2022-10-18T04:39:53.626Z,17.56
2022-10-18T04:40:56.096Z,17.55
2022-10-18T04:41:58.244Z,17.64
2022-10-18T04:43:00.383Z,17.44
2022-10-18T04:44:02.506Z,17.24
2022-10-18T04:45:05.037Z,17.40
2022-10-18T04:46:07.162Z,17.41
2022-10-18T04:47:09.290Z,17.45
2022-10-18T04:48:11.459Z,17.56
2022-10-18T04:49:13.608Z,17.45
2022-10-18T04:50:15.842Z,17.46
2022-10-18T04:51:17.968Z,17.48
2022-10-18T04:52:20.189Z,17.39
2022-10-18T04:53:22.300Z,17.44
2022-10-18T04:54:26.561Z,17.45
2022-10-18T04:55:30.773Z,17.50
2022-10-18T04:56:32.980Z,17.44
2022-10-18T04:57:35.186Z,17.53
2022-10-18T04:58:37.342Z,17.59
2022-10-18T04:59:39.430Z,17.31
2022-10-18T05:00:42.245Z,17.23
2022-10-18T05:01:44.430Z,17.17
2022-10-18T05:02:46.624Z,17.30
2022-10-18T05:03:52.394Z,17.61
2022-10-18T05:04:54.509Z,17.42
2022-10-18T05:06:01.769Z,17.40
2022-10-18T05:07:06.614Z,17.27
2022-10-18T05:08:08.918Z,17.34
2022-10-18T05:09:11.112Z,17.34
2022-10-18T05:10:13.197Z,17.34
2022-10-18T05:11:15.355Z,17.33
2022-10-18T05:12:17.528Z,17.15
2022-10-18T05:13:19.629Z,17.24
2022-10-18T05:14:21.751Z,17.28
2022-10-18T05:15:26.133Z,17.42
2022-10-18T05:16:28.470Z,17.28
2022-10-18T05:17:30.669Z,17.32
2022-10-18T05:18:33.042Z,17.38
2022-10-18T05:19:35.138Z,17.29
2022-10-18T05:20:37.291Z,17.31
2022-10-18T05:21:39.396Z,17.35
2022-10-18T05:22:41.595Z,17.22
2022-10-18T05:23:43.724Z,17.27
2022-10-18T05:24:45.876Z,17.26
2022-10-18T05:25:48.322Z,17.30
2022-10-18T05:26:50.429Z,17.34
2022-10-18T05:27:52.975Z,17.40
2022-10-18T05:28:55.292Z,17.33
2022-10-18T05:29:59.991Z,17.26
2022-10-18T05:31:07.637Z,17.36
2022-10-18T05:32:09.921Z,17.30
2022-10-18T05:33:12.094Z,17.35
2022-10-18T05:34:14.373Z,17.26
2022-10-18T05:35:16.602Z,17.41
2022-10-18T05:36:18.734Z,17.40
2022-10-18T05:37:26.006Z,17.13
2022-10-18T05:38:31.041Z,17.15
2022-10-18T05:39:33.359Z,17.29
2022-10-18T05:40:38.871Z,17.55
2022-10-18T05:41:41.208Z,17.40
2022-10-18T05:42:43.362Z,17.42
2022-10-18T05:43:45.556Z,17.43
2022-10-18T05:44:47.690Z,17.21
2022-10-18T05:45:52.545Z,17.51
2022-10-18T05:46:54.674Z,17.39
2022-10-18T05:47:56.816Z,17.32
2022-10-18T05:48:59.042Z,17.36
2022-10-18T05:50:01.289Z,17.36
2022-10-18T05:51:03.450Z,17.30
2022-10-18T05:52:05.678Z,17.34
2022-10-18T05:53:12.455Z,17.35
2022-10-18T05:54:21.052Z,17.41
2022-10-18T05:55:23.864Z,17.48
2022-10-18T05:56:26.358Z,17.53
2022-10-18T05:57:28.501Z,17.45
2022-10-18T05:58:30.786Z,17.49
2022-10-18T05:59:32.970Z,17.40
2022-10-18T06:00:36.291Z,17.56
2022-10-18T06:01:39.979Z,17.55
2022-10-18T06:02:42.124Z,17.38
2022-10-18T06:03:44.328Z,17.50
2022-10-18T06:04:46.518Z,17.24
2022-10-18T06:05:50.183Z,17.18
2022-10-18T06:06:52.366Z,16.95
2022-10-18T06:07:55.983Z,17.08
2022-10-18T06:08:58.571Z,17.21
2022-10-18T06:10:00.807Z,17.20
2022-10-18T06:11:17.606Z,17.61
2022-10-18T06:12:19.809Z,17.11
2022-10-18T06:13:21.937Z,17.22
2022-10-18T06:14:24.098Z,17.31
2022-10-18T06:15:26.306Z,17.33
2022-10-18T06:16:32.167Z,17.37
2022-10-18T06:17:35.270Z,17.39
2022-10-18T06:18:37.923Z,17.46
2022-10-18T06:19:40.135Z,17.41
2022-10-18T06:20:42.328Z,17.38
2022-10-18T06:21:44.434Z,17.28
2022-10-18T06:22:46.622Z,17.30
2022-10-18T06:23:53.288Z,17.56
2022-10-18T06:24:57.265Z,17.33
2022-10-18T06:26:05.369Z,17.48
2022-10-18T06:27:10.347Z,17.04
2022-10-18T06:28:12.494Z,17.07
2022-10-18T06:29:15.008Z,16.84
2022-10-18T06:30:17.287Z,16.93
2022-10-18T06:31:21.167Z,16.97
2022-10-18T06:32:23.331Z,17.02
2022-10-18T06:33:25.679Z,17.06
2022-10-18T06:34:27.902Z,17.16
2022-10-18T06:35:30.020Z,17.21
2022-10-18T06:36:32.163Z,17.21
2022-10-18T06:37:35.574Z,17.07
2022-10-18T06:38:38.019Z,17.10
2022-10-18T06:39:40.965Z,17.10
2022-10-18T06:40:43.480Z,17.16
2022-10-18T06:41:45.623Z,17.11
2022-10-18T06:43:00.396Z,16.89
2022-10-18T06:44:14.285Z,16.89
2022-10-18T06:45:18.219Z,16.59
2022-10-18T06:46:20.588Z,16.44
2022-10-18T06:47:22.736Z,16.63
2022-10-18T06:48:25.070Z,16.67
2022-10-18T06:49:27.223Z,16.63
2022-10-18T06:50:29.314Z,16.58
2022-10-18T06:51:31.439Z,16.58
2022-10-18T06:52:33.735Z,16.70
2022-10-18T06:53:43.952Z,16.97
2022-10-18T06:54:50.855Z,16.71
2022-10-18T06:55:58.509Z,16.82
2022-10-18T06:57:02.624Z,16.91
2022-10-18T06:58:04.791Z,17.03
2022-10-18T06:59:06.909Z,17.00
2022-10-18T07:00:09.581Z,17.02
2022-10-18T07:01:13.871Z,17.20
2022-10-18T07:02:19.542Z,17.10
2022-10-18T07:03:21.952Z,17.08
2022-10-18T07:04:24.176Z,17.02
2022-10-18T07:05:26.419Z,17.06
2022-10-18T07:06:28.649Z,16.84
2022-10-18T07:07:31.882Z,16.94
2022-10-18T07:08:34.847Z,16.99
2022-10-18T07:09:37.163Z,16.87
2022-10-18T07:10:39.328Z,16.75
2022-10-18T07:11:41.459Z,16.83
2022-10-18T07:12:43.604Z,16.96
2022-10-18T07:13:46.012Z,17.04
2022-10-18T07:14:48.212Z,17.06
2022-10-18T07:16:11.642Z,17.22
2022-10-18T07:17:16.343Z,16.98
2022-10-18T07:18:18.489Z,17.02
2022-10-18T07:19:20.685Z,16.95
2022-10-18T07:20:23.154Z,16.75
2022-10-18T07:21:26.711Z,17.02
2022-10-18T07:22:30.411Z,16.86
2022-10-18T07:23:34.194Z,16.98
2022-10-18T07:24:36.352Z,16.75
2022-10-18T07:25:38.497Z,16.91
2022-10-18T07:26:42.389Z,16.96
2022-10-18T07:27:44.584Z,16.93
2022-10-18T07:28:50.016Z,17.15
2022-10-18T07:29:52.264Z,16.93
2022-10-18T07:30:54.606Z,16.99
2022-10-18T07:31:56.770Z,16.91
2022-10-18T07:32:58.923Z,16.78
2022-10-18T07:34:03.766Z,16.94
2022-10-18T07:35:06.297Z,16.73
2022-10-18T07:36:10.130Z,16.79
2022-10-18T07:37:12.287Z,16.61
2022-10-18T07:38:14.415Z,16.52
2022-10-18T07:39:16.637Z,16.53
2022-10-18T07:40:18.966Z,16.54
2022-10-18T07:41:21.882Z,16.54
2022-10-18T07:42:24.030Z,16.29
2022-10-18T07:43:26.368Z,16.44
2022-10-18T07:44:28.546Z,16.57
2022-10-18T07:45:31.099Z,16.77
2022-10-18T07:46:33.522Z,16.70
2022-10-18T07:47:35.676Z,16.74
2022-10-18T07:48:37.863Z,16.90
2022-10-18T07:49:40.003Z,17.02
2022-10-18T07:50:42.170Z,16.96
2022-10-18T07:51:44.336Z,17.10
2022-10-18T07:52:46.442Z,17.11
2022-10-18T07:53:48.553Z,17.23
2022-10-18T07:56:04.570Z,17.47
2022-10-18T07:57:09.368Z,17.38
2022-10-18T07:58:12.238Z,17.21
2022-10-18T07:59:14.390Z,17.24
2022-10-18T08:00:16.645Z,17.13
2022-10-18T08:01:20.200Z,17.33
2022-10-18T08:02:25.496Z,17.37
2022-10-18T08:03:27.658Z,16.99
2022-10-18T08:04:29.785Z,17.13
2022-10-18T08:06:40.324Z,17.04
2022-10-18T08:07:42.423Z,17.23
2022-10-18T08:08:45.490Z,17.37
2022-10-18T08:09:47.605Z,17.47
2022-10-18T08:10:50.200Z,17.66
2022-10-18T08:11:52.313Z,17.70
2022-10-18T08:12:54.618Z,17.53
2022-10-18T08:13:56.867Z,17.62
2022-10-18T08:14:58.965Z,17.26
2022-10-18T08:16:06.259Z,17.63
2022-10-18T08:17:08.612Z,17.89
2022-10-18T08:18:11.127Z,17.73
2022-10-18T08:19:13.296Z,17.90
2022-10-18T08:20:29.821Z,17.90
2022-10-18T08:21:33.274Z,17.67
2022-10-18T08:22:35.392Z,17.67
2022-10-18T08:23:37.981Z,17.86
2022-10-18T08:24:40.451Z,17.73
2022-10-18T08:25:42.551Z,17.49
2022-10-18T08:26:44.692Z,17.73
2022-10-18T08:27:46.866Z,17.87
2022-10-18T08:28:58.221Z,18.02
2022-10-18T08:30:11.781Z,17.57
2022-10-18T08:31:17.427Z,17.83
2022-10-18T08:32:19.538Z,17.88
2022-10-18T08:33:21.745Z,17.98
2022-10-18T08:34:24.032Z,17.90
2022-10-18T08:35:26.312Z,17.70
2022-10-18T08:36:28.517Z,17.84
2022-10-18T08:37:31.049Z,17.46
2022-10-18T08:38:37.563Z,17.44
2022-10-18T08:39:39.730Z,17.40
2022-10-18T08:40:44.397Z,17.43
2022-10-18T08:42:03.961Z,17.71
2022-10-18T08:43:21.933Z,17.65
2022-10-18T08:44:28.667Z,17.18
2022-10-18T08:45:41.891Z,17.29
2022-10-18T08:46:48.179Z,17.31
2022-10-18T08:47:52.032Z,17.40
2022-10-18T08:48:56.504Z,17.41
2022-10-18T08:50:03.227Z,17.90
2022-10-18T08:51:24.745Z,18.18
2022-10-18T08:52:57.460Z,18.07
2022-10-18T08:54:06.154Z,18.06
2022-10-18T08:55:15.907Z,18.37
2022-10-18T08:56:24.089Z,17.66
2022-10-18T08:57:26.347Z,17.59
2022-10-18T08:58:31.782Z,17.83
2022-10-18T08:59:39.822Z,18.03
2022-10-18T09:01:03.690Z,18.26
2022-10-18T09:02:31.643Z,17.93
2022-10-18T09:03:52.309Z,17.67
2022-10-18T09:05:09.584Z,17.95
2022-10-18T09:06:31.652Z,18.03
2022-10-18T09:08:01.551Z,17.74
2022-10-18T09:09:18.788Z,17.96
2022-10-18T09:10:40.060Z,17.55
2022-10-18T09:12:01.026Z,17.80
2022-10-18T09:13:23.138Z,17.81
2022-10-18T09:14:49.543Z,18.04
2022-10-18T09:16:14.847Z,17.88
2022-10-18T09:17:35.409Z,18.24
2022-10-18T09:18:46.249Z,18.41
2022-10-18T09:21:18.060Z,18.44
2022-10-18T09:22:22.401Z,18.50
2022-10-18T09:24:12.022Z,19.06
2022-10-18T09:25:21.841Z,18.93
2022-10-18T09:26:24.999Z,18.89
2022-10-18T09:27:46.759Z,18.56
2022-10-18T09:29:13.246Z,18.42
2022-10-18T09:30:38.466Z,17.96
2022-10-18T09:31:49.475Z,18.38
2022-10-18T09:33:23.430Z,17.88
2022-10-18T09:34:37.494Z,18.24
2022-10-18T09:35:49.431Z,18.69
2022-10-18T09:36:52.520Z,18.44
2022-10-18T09:38:02.777Z,18.81
2022-10-18T09:39:14.207Z,18.33
2022-10-18T09:40:27.498Z,18.43
2022-10-18T09:41:54.040Z,18.11
2022-10-18T09:43:12.111Z,18.62
2022-10-18T09:44:25.655Z,18.61
2022-10-18T09:45:30.884Z,18.32
2022-10-18T09:46:38.887Z,18.69
2022-10-18T09:47:51.035Z,19.01
2022-10-18T09:49:00.316Z,19.17
2022-10-18T09:50:15.452Z,18.66
2022-10-18T09:51:23.081Z,18.61
2022-10-18T09:52:31.969Z,18.73
2022-10-18T09:53:56.542Z,19.16
2022-10-18T09:55:12.883Z,20.01
2022-10-18T09:56:17.035Z,19.83
2022-10-18T09:57:32.711Z,19.82
2022-10-18T09:58:44.551Z,20.95
2022-10-18T09:59:49.147Z,21.04
2022-10-18T10:00:53.337Z,21.41
2022-10-18T10:01:55.608Z,22.23
2022-10-18T10:03:00.432Z,21.80
2022-10-18T10:04:02.622Z,21.48
2022-10-18T10:05:06.191Z,21.51
2022-10-18T10:06:15.113Z,21.16
2022-10-18T10:07:20.556Z,20.90
2022-10-18T10:08:32.599Z,20.91
2022-10-18T10:09:46.265Z,20.94
2022-10-18T10:10:48.644Z,20.50
2022-10-18T10:11:51.928Z,20.27
2022-10-18T10:13:26.162Z,21.06
2022-10-18T10:14:30.651Z,20.96
2022-10-18T10:15:37.164Z,20.27
2022-10-18T10:16:47.897Z,21.14
2022-10-18T10:18:05.644Z,22.13
2022-10-18T10:19:18.697Z,22.40
2022-10-18T10:20:36.373Z,22.31
2022-10-18T10:21:40.068Z,22.70
2022-10-18T10:22:44.561Z,22.49
2022-10-18T10:23:53.267Z,22.39
2022-10-18T10:24:55.607Z,23.10
2022-10-18T10:26:28.890Z,23.84
2022-10-18T10:27:43.202Z,23.74
2022-10-18T10:28:48.642Z,23.75
2022-10-18T10:29:56.641Z,24.59
2022-10-18T10:31:17.396Z,23.85
2022-10-18T10:32:22.343Z,24.02
2022-10-18T10:33:30.546Z,23.21
2022-10-18T10:34:32.723Z,22.36
2022-10-18T10:35:54.045Z,22.70
2022-10-18T10:36:56.687Z,22.67
2022-10-18T10:37:59.100Z,22.40
2022-10-18T10:39:07.461Z,22.05
2022-10-18T10:40:22.891Z,23.43
2022-10-18T10:41:26.231Z,21.90
2022-10-18T10:42:28.451Z,22.20
2022-10-18T10:43:39.159Z,22.89
2022-10-18T10:44:54.916Z,22.84
2022-10-18T10:46:06.466Z,22.30
2022-10-18T10:47:08.666Z,21.20
2022-10-18T10:48:16.681Z,22.21
2022-10-18T10:49:39.519Z,21.68
2022-10-18T10:50:55.854Z,21.68
2022-10-18T10:52:08.791Z,21.50
2022-10-18T10:53:38.968Z,21.40
2022-10-18T10:54:50.417Z,21.98
2022-10-18T10:55:56.146Z,21.79
2022-10-18T10:57:11.208Z,22.33
2022-10-18T10:58:18.240Z,22.51
2022-10-18T10:59:22.942Z,23.42
2022-10-18T11:00:38.805Z,24.07
2022-10-18T11:01:41.821Z,23.83
2022-10-18T11:02:55.383Z,25.21
2022-10-18T11:04:30.306Z,26.28
2022-10-18T11:05:43.182Z,25.57
2022-10-18T11:06:50.568Z,24.40
2022-10-18T11:07:56.728Z,24.48
2022-10-18T11:09:03.217Z,25.57
2022-10-18T11:10:11.431Z,25.05
2022-10-18T11:11:27.848Z,25.60
2022-10-18T11:12:36.444Z,25.08
2022-10-18T11:14:25.717Z,24.95
2022-10-18T11:15:44.312Z,26.29
2022-10-18T11:17:08.438Z,25.48
2022-10-18T11:18:14.633Z,24.43
2022-10-18T11:19:42.935Z,25.87
2022-10-18T11:20:55.445Z,25.83
2022-10-18T11:22:00.671Z,26.07
2022-10-18T11:23:07.142Z,25.44
2022-10-18T11:24:16.532Z,25.32
2022-10-18T11:25:20.841Z,25.55
2022-10-18T11:26:55.248Z,25.32
2022-10-18T11:28:22.500Z,25.46
2022-10-18T11:29:34.089Z,24.74
2022-10-18T11:30:38.897Z,24.50
2022-10-18T11:32:18.874Z,25.75
2022-10-18T11:34:07.727Z,24.69
2022-10-18T11:35:30.196Z,23.59
2022-10-18T11:36:55.015Z,23.98
2022-10-18T11:38:29.247Z,23.61
2022-10-18T11:39:49.152Z,24.87
2022-10-18T11:41:06.513Z,24.03
2022-10-18T11:42:40.143Z,24.89
2022-10-18T11:44:02.809Z,23.91
2022-10-18T11:45:05.355Z,22.91
2022-10-18T11:46:19.326Z,23.24
2022-10-18T11:47:30.497Z,24.01
2022-10-18T11:48:42.394Z,23.91
2022-10-18T11:49:47.011Z,24.24
2022-10-18T11:51:01.463Z,25.11
2022-10-18T11:52:46.477Z,25.79
2022-10-18T11:54:16.224Z,25.89
2022-10-18T11:55:49.308Z,26.64
2022-10-18T11:57:01.918Z,27.24
2022-10-18T11:58:25.015Z,27.96
2022-10-18T11:59:45.867Z,28.27
2022-10-18T12:00:50.886Z,27.94
2022-10-18T12:02:16.929Z,28.95
2022-10-18T12:03:54.510Z,28.11
2022-10-18T12:06:26.301Z,27.38
2022-10-18T12:07:36.203Z,27.66
2022-10-18T12:08:53.419Z,27.48
2022-10-18T12:09:56.598Z,28.51
2022-10-18T12:11:06.584Z,29.08
2022-10-18T12:12:24.744Z,30.64
2022-10-18T12:13:43.499Z,30.10
2022-10-18T12:14:56.975Z,28.22
2022-10-18T12:16:02.179Z,27.65
2022-10-18T12:17:40.170Z,27.57
2022-10-18T12:19:56.848Z,27.02
2022-10-18T12:21:01.060Z,27.04
2022-10-18T12:22:16.321Z,26.57
2022-10-18T12:23:30.371Z,26.30
2022-10-18T12:24:34.252Z,26.11
2022-10-18T12:25:41.976Z,25.65
2022-10-18T12:26:48.496Z,24.27
2022-10-18T12:28:08.904Z,23.87
2022-10-18T12:29:18.627Z,24.36
2022-10-18T12:30:32.004Z,24.30
2022-10-18T12:31:46.049Z,25.17
2022-10-18T12:33:03.528Z,25.07
2022-10-18T12:34:22.898Z,25.84
2022-10-18T12:35:28.191Z,27.51
2022-10-18T12:36:57.344Z,27.45
2022-10-18T12:38:37.033Z,26.73
2022-10-18T12:40:05.528Z,26.11
2022-10-18T12:41:21.818Z,26.98
2022-10-18T12:42:30.717Z,27.91
2022-10-18T12:43:36.849Z,27.50
2022-10-18T12:44:39.874Z,26.47
2022-10-18T12:46:02.356Z,28.06
2022-10-18T12:47:06.461Z,27.28
2022-10-18T12:48:36.372Z,27.38
2022-10-18T12:49:41.464Z,26.62
2022-10-18T12:50:59.076Z,27.62
2022-10-18T12:52:08.054Z,28.47
2022-10-18T12:53:10.110Z,28.27
2022-10-18T12:54:13.067Z,27.24
2022-10-18T12:55:21.310Z,27.63
2022-10-18T12:56:29.316Z,28.55
2022-10-18T12:57:53.573Z,28.41
2022-10-18T12:59:17.026Z,28.97
2022-10-18T13:00:31.342Z,28.64
2022-10-18T13:01:53.523Z,28.77
2022-10-18T13:03:13.527Z,28.61
2022-10-18T13:04:27.635Z,28.66
2022-10-18T13:06:06.465Z,28.20
2022-10-18T13:07:08.959Z,28.94
2022-10-18T13:08:30.258Z,27.62
2022-10-18T13:09:37.999Z,27.54
2022-10-18T13:10:40.661Z,27.81
2022-10-18T13:11:42.920Z,27.67
2022-10-18T13:13:29.669Z,27.62
2022-10-18T13:15:24.858Z,26.23
2022-10-18T13:16:33.553Z,27.15
2022-10-18T13:17:53.571Z,27.28
2022-10-18T13:18:59.646Z,25.68
2022-10-18T13:20:25.705Z,25.85
2022-10-18T13:21:59.991Z,25.05
2022-10-18T13:23:25.316Z,24.05
2022-10-18T13:25:05.546Z,25.06
2022-10-18T13:26:31.916Z,23.45
2022-10-18T13:27:42.061Z,23.69
2022-10-18T13:29:05.594Z,23.68
2022-10-18T13:30:45.527Z,23.08
2022-10-18T13:31:54.677Z,22.38
2022-10-18T13:33:00.921Z,22.54
2022-10-18T13:34:22.356Z,22.28
2022-10-18T13:35:45.804Z,22.70
2022-10-18T13:37:06.356Z,22.12
2022-10-18T13:38:32.644Z,22.34
2022-10-18T13:39:35.378Z,22.11
2022-10-18T13:40:37.934Z,22.49
2022-10-18T13:41:45.924Z,22.58
2022-10-18T13:42:50.967Z,23.09
2022-10-18T13:43:53.259Z,23.12
2022-10-18T13:45:15.352Z,22.97
2022-10-18T13:46:17.627Z,22.55
2022-10-18T13:47:36.015Z,23.00
2022-10-18T13:48:38.077Z,23.51
2022-10-18T13:49:40.174Z,23.58
2022-10-18T13:50:44.756Z,23.96
2022-10-18T13:51:59.103Z,24.28
2022-10-18T13:53:26.985Z,23.35
2022-10-18T13:54:41.258Z,23.04
2022-10-18T13:56:07.701Z,23.42
2022-10-18T13:57:47.317Z,23.12
2022-10-18T13:59:15.796Z,23.57
2022-10-18T14:00:35.067Z,23.09
2022-10-18T14:02:09.495Z,24.08
2022-10-18T14:03:55.796Z,23.97
2022-10-18T14:05:31.804Z,24.74
2022-10-18T14:06:38.457Z,24.13
2022-10-18T14:07:43.249Z,24.09
2022-10-18T14:08:57.762Z,23.58
2022-10-18T14:10:03.361Z,24.08
2022-10-18T14:11:16.966Z,24.43
2022-10-18T14:12:47.786Z,23.62
2022-10-18T14:14:03.292Z,24.33
2022-10-18T14:15:15.801Z,23.29
2022-10-18T14:17:47.886Z,24.08
2022-10-18T14:18:54.659Z,24.29
2022-10-18T14:20:03.338Z,23.83
2022-10-18T14:21:16.828Z,23.86
2022-10-18T14:22:36.513Z,23.82
2022-10-18T14:23:44.663Z,23.94
2022-10-18T14:24:51.199Z,24.42
2022-10-18T14:26:06.382Z,24.42
2022-10-18T14:27:22.397Z,24.20
2022-10-18T14:28:36.178Z,24.02
2022-10-18T14:29:44.317Z,24.30
2022-10-18T14:30:57.901Z,24.21
2022-10-18T14:32:00.131Z,23.93
2022-10-18T14:33:02.817Z,23.87
2022-10-18T14:34:04.947Z,24.30
2022-10-18T14:35:33.443Z,24.87
2022-10-18T14:36:40.935Z,25.12
2022-10-18T14:37:43.706Z,24.91
2022-10-18T14:39:00.299Z,24.72
2022-10-18T14:40:03.962Z,23.77
2022-10-18T14:41:11.996Z,23.95
2022-10-18T14:42:21.384Z,23.77
2022-10-18T14:43:23.489Z,22.60
2022-10-18T14:44:32.397Z,22.58
2022-10-18T14:45:34.830Z,22.71
2022-10-18T14:46:43.565Z,22.06
2022-10-18T14:47:45.822Z,21.75
2022-10-18T14:49:00.230Z,22.23
2022-10-18T14:50:02.460Z,21.89
2022-10-18T14:51:09.735Z,22.41